Terrebonne, Oregon
Current Conditions -  °F | °C
As of 7:56 PM on Friday 19 Dec 2014 (Local Time) from KRDM Reporting Station
Overcast Overcast  
Wind Chill: 36°   Ceiling: 7000
Heat Index: 39°   Visibility: 10mi
Dew Point: 33°   Wind: 5mph
Humidity: 79%   Direction: 150°SSE
Pressure: 29.99"   Gusts: NA
Location:  44.35°N, 121.18°W
Report Text: KRDM 200356Z AUTO 15004KT 10SM OVC070 04/01 A2999 RMK AO2 SLP165 T00390006
Loading
Personal Weather Stations






























Interactive Weather Map New forecast layout! Learn more

10-Day Weather Forecast

Advertisements
Track Severe Weather on mobile